Terminal Aerodrome Forecast
Issued by NWS Kansas City/Pleasant Hill, MO

Home | Current Version | Previous Version | Text Only | Print | Product List | Glossary On
Versions: 1 2 3 4 5 6 7 8 9 10 11 12 13 14 15 16 17 18 19 20 21 22 23
404
FTUS43 KEAX 282328
TAFMCI
TAF
KMCI 282328Z 2900/2924 23007KT P6SM FEW050
     FM290200 22005KT P6SM SKC
     FM291700 25008KT P6SM SCT050=

USA.gov is the U.S. government's official web portal to all federal, state and local government web resources and services.